Time;durP1;ratioP1;P1;durP2;ratioP2;P2;SDS_P1;SDS_P2;PMS_P1;PMS_P2;Temp;Humidity;BMP_temperature;BMP_pressure;BME280_temperature;BME280_humidity;BME280_pressure;Samples;Min_cycle;Max_cycle;Signal;HPM_P1;HPM_P2
2021/10/28 00:12:19;;;;;;;16.37;12.37;;;;;;;5.13;100.00;98721.53;4926600;28;20379;-69
2021/10/28 00:14:53;;;;;;;15.27;12.93;;;;;;;5.15;100.00;98724.88;4935954;28;20257;-70
2021/10/28 00:17:38;;;;;;;18.37;13.60;;;;;;;5.18;100.00;98727.28;4923779;28;20714;-70
2021/10/28 00:20:08;;;;;;;13.80;12.27;;;;;;;5.09;100.00;98724.47;4912904;28;20451;-71
2021/10/28 00:22:38;;;;;;;16.67;13.30;;;;;;;5.10;100.00;98729.59;4940522;28;20230;-71
2021/10/28 00:25:08;;;;;;;19.07;13.50;;;;;;;5.09;100.00;98719.22;4924941;28;20831;-70
2021/10/28 00:27:36;;;;;;;21.87;14.10;;;;;;;5.10;100.00;98718.28;4933669;28;20202;-71
2021/10/28 00:30:05;;;;;;;16.20;12.90;;;;;;;4.99;100.00;98725.16;4931448;28;20611;-71
2021/10/28 00:32:33;;;;;;;16.23;13.93;;;;;;;4.99;100.00;98722.53;4925524;28;20249;-72
2021/10/28 00:35:01;;;;;;;18.77;12.73;;;;;;;4.98;100.00;98727.88;4904697;28;20546;-70
2021/10/28 00:37:31;;;;;;;16.97;13.37;;;;;;;5.01;100.00;98711.88;4939837;28;20207;-70
2021/10/28 00:39:59;;;;;;;22.83;15.93;;;;;;;5.09;100.00;98708.72;4922897;28;20214;-69
2021/10/28 00:42:28;;;;;;;19.27;13.77;;;;;;;5.21;100.00;98716.56;4936392;28;20231;-70
2021/10/28 00:44:56;;;;;;;16.33;13.17;;;;;;;5.08;100.00;98707.88;4934170;28;20218;-70
2021/10/28 00:47:24;;;;;;;16.13;13.43;;;;;;;5.17;100.00;98712.47;4928693;28;20214;-70
2021/10/28 00:49:52;;;;;;;22.07;14.03;;;;;;;5.08;100.00;98707.88;4909393;28;20218;-69
2021/10/28 00:52:20;;;;;;;14.67;13.07;;;;;;;5.14;100.00;98715.31;4938330;28;20234;-70
2021/10/28 00:54:49;;;;;;;15.00;13.23;;;;;;;5.16;100.00;98709.94;4934578;28;20247;-70
2021/10/28 00:57:17;;;;;;;14.23;12.83;;;;;;;5.11;100.00;98710.25;4928787;28;20844;-70
2021/10/28 00:59:46;;;;;;;16.10;14.40;;;;;;;5.07;100.00;98711.44;4935514;28;20242;-70
2021/10/28 01:02:14;;;;;;;17.17;13.27;;;;;;;5.16;100.00;98715.19;4932241;28;20231;-71
2021/10/28 01:04:43;;;;;;;16.40;14.07;;;;;;;5.18;100.00;98708.03;4917370;28;20214;-70
2021/10/28 01:07:11;;;;;;;16.10;12.97;;;;;;;5.23;100.00;98708.53;4919510;28;20215;-71
2021/10/28 01:09:40;;;;;;;17.10;12.93;;;;;;;5.14;100.00;98707.44;4910102;28;21032;-71
2021/10/28 01:12:10;;;;;;;17.10;13.73;;;;;;;5.07;100.00;98712.28;4933488;28;20235;-70
2021/10/28 01:14:42;;;;;;;15.83;13.37;;;;;;;5.06;100.00;98720.28;4942507;28;20298;-71
2021/10/28 01:17:10;;;;;;;17.30;13.83;;;;;;;5.07;100.00;98716.69;4933381;28;20233;-70
2021/10/28 01:19:38;;;;;;;17.40;13.50;;;;;;;5.04;100.00;98715.16;4946947;28;20207;-70
2021/10/28 01:22:07;;;;;;;18.73;14.40;;;;;;;5.03;100.00;98710.84;4945228;28;20249;-70
2021/10/28 01:24:35;;;;;;;18.37;13.70;;;;;;;4.98;100.00;98706.84;4916994;28;20917;-71
2021/10/28 01:27:05;;;;;;;17.57;13.57;;;;;;;4.99;100.00;98701.50;4944272;28;20218;-71
2021/10/28 01:29:46;;;;;;;17.43;13.27;;;;;;;4.99;100.00;98701.50;4909122;29;20212;-69
2021/10/28 01:32:14;;;;;;;19.33;14.00;;;;;;;5.01;100.00;98698.75;4885910;29;20827;-72
2021/10/28 01:34:43;;;;;;;18.70;12.60;;;;;;;5.01;100.00;98701.38;4904558;29;20228;-71
2021/10/28 01:37:14;;;;;;;15.10;12.23;;;;;;;4.96;100.00;98699.09;4901599;29;20465;-70
2021/10/28 01:39:42;;;;;;;20.13;13.60;;;;;;;4.95;100.00;98696.56;4901543;29;20585;-70
2021/10/28 01:42:11;;;;;;;15.30;12.57;;;;;;;5.03;100.00;98691.59;4871057;29;20346;-70
2021/10/28 01:44:40;;;;;;;15.93;12.93;;;;;;;4.93;100.00;98694.91;4902843;29;20366;-71
2021/10/28 01:47:09;;;;;;;15.70;13.33;;;;;;;4.90;100.00;98695.13;4892895;29;20224;-71
2021/10/28 01:49:37;;;;;;;15.73;13.13;;;;;;;4.92;100.00;98689.75;4904943;29;20203;-71
2021/10/28 01:52:05;;;;;;;16.43;13.67;;;;;;;4.91;100.00;98690.69;4898880;29;20680;-70
2021/10/28 01:54:35;;;;;;;15.53;12.83;;;;;;;4.90;100.00;98683.75;4905341;29;20243;-71
2021/10/28 01:57:03;;;;;;;23.90;12.57;;;;;;;4.91;100.00;98686.28;4872715;29;20223;-70
2021/10/28 01:59:33;;;;;;;17.47;13.87;;;;;;;4.85;100.00;98678.88;4902830;29;20732;-69
2021/10/28 02:02:01;;;;;;;20.43;13.70;;;;;;;4.93;100.00;98675.69;4938311;28;20238;-70
2021/10/28 02:04:29;;;;;;;17.03;12.93;;;;;;;4.87;100.00;98676.97;4927482;28;20207;-71
2021/10/28 02:06:57;;;;;;;16.40;13.17;;;;;;;4.81;100.00;98677.41;4937411;28;20222;-70
2021/10/28 02:09:25;;;;;;;13.93;12.23;;;;;;;4.94;100.00;98672.13;4935768;28;21087;-71
2021/10/28 02:11:54;;;;;;;17.57;12.87;;;;;;;4.85;100.00;98678.88;4913912;28;20642;-70
2021/10/28 02:14:22;;;;;;;17.20;13.20;;;;;;;4.82;100.00;98681.72;4936123;28;20461;-71
2021/10/28 02:16:50;;;;;;;16.60;14.13;;;;;;;4.85;100.00;98675.38;4946146;28;20586;-70
2021/10/28 02:19:18;;;;;;;19.67;13.00;;;;;;;4.82;100.00;98675.59;4924760;28;20527;-70
2021/10/28 02:21:46;;;;;;;20.10;14.17;;;;;;;4.77;100.00;98668.91;4936432;28;20224;-71
2021/10/28 02:24:14;;;;;;;16.57;12.87;;;;;;;4.74;100.00;98674.38;4936435;28;20400;-70
2021/10/28 02:26:43;;;;;;;13.80;11.57;;;;;;;4.67;100.00;98673.16;4915567;28;20225;-71
2021/10/28 02:29:12;;;;;;;29.83;14.00;;;;;;;4.61;100.00;98671.78;4939283;28;20657;-71
2021/10/28 02:31:43;;;;;;;17.80;12.10;;;;;;;4.52;100.00;98666.34;4938396;28;20233;-70
2021/10/28 02:34:11;;;;;;;12.97;11.70;;;;;;;4.49;100.00;98670.03;4924273;28;20919;-71
2021/10/28 02:36:40;;;;;;;14.70;12.47;;;;;;;4.58;100.00;98663.31;4919218;28;20294;-71
2021/10/28 02:39:08;;;;;;;13.60;11.20;;;;;;;4.53;100.00;98663.63;4938810;28;20374;-71
2021/10/28 02:41:37;;;;;;;14.03;12.43;;;;;;;4.50;100.00;98658.59;4903974;28;24757;-69
2021/10/28 02:44:06;;;;;;;17.07;12.13;;;;;;;4.63;100.00;98667.25;4939496;28;20294;-70
2021/10/28 02:46:35;;;;;;;17.77;12.13;;;;;;;4.65;100.00;98656.66;4927811;28;20207;-71
2021/10/28 02:49:04;;;;;;;14.37;11.87;;;;;;;4.68;100.00;98664.31;4942352;28;20214;-69
2021/10/28 02:51:33;;;;;;;15.03;13.00;;;;;;;4.76;100.00;98659.34;4908091;28;20324;-71
2021/10/28 02:54:02;;;;;;;21.30;11.67;;;;;;;4.64;100.00;98668.94;4934573;28;20216;-71
2021/10/28 02:56:30;;;;;;;22.73;12.73;;;;;;;4.72;100.00;98665.78;4906084;28;20231;-69
2021/10/28 02:58:59;;;;;;;17.30;12.57;;;;;;;4.79;100.00;98663.56;4943370;28;20221;-71
2021/10/28 03:01:27;;;;;;;20.63;12.67;;;;;;;4.64;100.00;98665.50;4930010;28;20235;-70
2021/10/28 03:03:56;;;;;;;18.70;12.33;;;;;;;4.59;100.00;98657.94;4940199;28;20234;-72
2021/10/28 03:06:24;;;;;;;16.87;12.23;;;;;;;4.54;100.00;98659.19;4922166;28;20525;-70
2021/10/28 03:08:52;;;;;;;13.77;12.10;;;;;;;4.55;100.00;98656.47;4941449;28;20591;-71
2021/10/28 03:11:20;;;;;;;18.87;12.93;;;;;;;4.58;100.00;98668.56;4936290;28;20223;-70
2021/10/28 03:13:49;;;;;;;16.60;12.53;;;;;;;4.60;100.00;98666.66;4917285;28;20393;-71
2021/10/28 03:16:23;;;;;;;19.40;13.03;;;;;;;4.59;100.00;98667.59;4939893;28;20239;-70
2021/10/28 03:19:26;;;;;;;17.93;12.20;;;;;;;4.58;100.00;98669.38;4903776;28;20280;-70
2021/10/28 03:27:28;;;;;;;14.17;12.37;;;;;;;4.47;100.00;98664.06;4926011;28;20238;-71
2021/10/28 03:29:56;;;;;;;16.83;12.07;;;;;;;4.52;100.00;98668.97;4934387;28;20230;-71
2021/10/28 03:32:24;;;;;;;16.47;11.80;;;;;;;4.41;100.00;98660.06;4905972;28;20230;-71
2021/10/28 03:34:53;;;;;;;13.17;10.77;;;;;;;4.29;100.00;98664.41;4933714;28;20233;-70
2021/10/28 03:37:26;;;;;;;15.60;10.73;;;;;;;4.41;100.00;98667.13;4941898;28;20707;-71
2021/10/28 03:40:11;;;;;;;14.17;11.00;;;;;;;4.34;100.00;98667.53;4937142;28;20223;-71
2021/10/28 03:45:39;;;;;;;15.20;10.90;;;;;;;4.30;100.00;98663.44;4938799;28;20624;-71
2021/10/28 04:18:53;;;;;;;16.83;12.83;;;;;;;4.26;100.00;98674.28;4918266;28;20742;-69
2021/10/28 04:21:39;;;;;;;17.70;11.53;;;;;;;4.42;100.00;98671.44;4929700;28;20219;-69
2021/10/28 04:29:50;;;;;;;11.40;9.80;;;;;;;4.20;100.00;98678.16;4929327;28;20769;-68
2021/10/28 04:32:18;;;;;;;18.17;11.07;;;;;;;4.31;100.00;98673.00;4935207;28;20250;-68
2021/10/28 04:34:46;;;;;;;18.57;12.23;;;;;;;4.18;100.00;98666.94;4903999;28;20409;-68
2021/10/28 04:37:14;;;;;;;17.43;11.03;;;;;;;4.27;100.00;98658.41;4936862;28;20247;-67
2021/10/28 04:39:42;;;;;;;12.00;10.33;;;;;;;4.33;100.00;98665.03;4936231;28;20243;-68
2021/10/28 04:42:12;;;;;;;13.77;11.27;;;;;;;4.38;100.00;98662.91;4930052;28;20231;-68
2021/10/28 04:44:41;;;;;;;16.03;11.83;;;;;;;4.39;100.00;98669.03;4930545;28;20206;-68
2021/10/28 04:47:09;;;;;;;15.17;11.60;;;;;;;4.31;100.00;98659.06;4938470;28;20584;-68
2021/10/28 04:49:37;;;;;;;27.97;13.73;;;;;;;4.29;100.00;98660.94;4926781;28;20217;-68
2021/10/28 04:52:06;;;;;;;15.23;13.57;;;;;;;4.36;100.00;98664.81;4909268;28;20524;-69
2021/10/28 04:54:34;;;;;;;20.17;13.43;;;;;;;4.34;100.00;98664.09;4940558;28;20210;-68
2021/10/28 04:57:02;;;;;;;16.47;12.70;;;;;;;4.21;100.00;98661.47;4937608;28;20446;-68
2021/10/28 04:59:32;;;;;;;14.20;12.17;;;;;;;4.33;100.00;98659.78;4944256;28;20203;-68
2021/10/28 05:02:05;;;;;;;16.90;13.40;;;;;;;4.25;100.00;98665.56;4935544;28;20440;-70
2021/10/28 05:04:34;;;;;;;22.57;12.97;;;;;;;4.24;100.00;98656.00;4929977;28;21076;-68
2021/10/28 05:07:02;;;;;;;25.70;13.50;;;;;;;4.33;100.00;98657.97;4903734;28;20208;-69
2021/10/28 05:09:32;;;;;;;14.67;12.30;;;;;;;4.30;100.00;98655.56;4944310;28;20203;-68
2021/10/28 05:12:00;;;;;;;15.40;13.00;;;;;;;4.20;100.00;98654.56;4934824;28;20419;-70
2021/10/28 05:14:28;;;;;;;16.27;13.03;;;;;;;4.21;100.00;98656.22;4941600;28;20199;-70
2021/10/28 05:16:58;;;;;;;16.57;13.43;;;;;;;4.17;100.00;98660.88;4933762;28;20230;-71
2021/10/28 05:19:28;;;;;;;26.73;17.57;;;;;;;4.18;100.00;98659.94;4934309;28;20234;-70
2021/10/28 05:21:56;;;;;;;17.93;15.00;;;;;;;4.24;100.00;98661.25;4901813;28;20381;-70
2021/10/28 05:24:24;;;;;;;21.30;14.20;;;;;;;4.19;100.00;98655.50;4912096;28;21059;-70
2021/10/28 05:26:54;;;;;;;19.57;14.57;;;;;;;4.30;100.00;98655.56;4940624;28;20284;-68
2021/10/28 05:29:23;;;;;;;18.13;14.43;;;;;;;4.22;100.00;98649.22;4939456;28;20611;-70
2021/10/28 05:31:50;;;;;;;19.17;14.13;;;;;;;4.24;100.00;98656.00;4925406;28;20242;-70
2021/10/28 05:34:20;;;;;;;23.67;14.50;;;;;;;4.19;100.00;98650.25;4939710;28;20210;-68
2021/10/28 05:36:49;;;;;;;21.57;14.67;;;;;;;4.31;100.00;98657.25;4938892;28;20663;-70
2021/10/28 05:39:17;;;;;;;21.07;15.53;;;;;;;4.22;100.00;98643.97;4912881;28;20214;-68
2021/10/28 05:41:46;;;;;;;20.57;13.87;;;;;;;4.30;100.00;98649.50;4926650;28;20245;-71
2021/10/28 05:44:14;;;;;;;22.13;15.27;;;;;;;4.30;100.00;98652.13;4924204;28;20210;-67
2021/10/28 05:46:42;;;;;;;19.03;14.67;;;;;;;4.31;100.00;98652.00;4919137;28;20799;-68
2021/10/28 05:49:10;;;;;;;23.17;15.60;;;;;;;4.33;100.00;98649.28;4949790;28;20206;-69
2021/10/28 05:51:40;;;;;;;22.17;14.53;;;;;;;4.30;100.00;98650.31;4935541;28;20616;-69
2021/10/28 05:54:08;;;;;;;16.60;13.87;;;;;;;4.29;100.00;98651.28;4935200;28;20204;-70
2021/10/28 05:56:37;;;;;;;22.03;15.47;;;;;;;4.21;100.00;98645.72;4899446;28;20432;-70
2021/10/28 05:59:05;;;;;;;20.03;14.87;;;;;;;4.22;100.00;98647.41;4921182;28;20226;-71
2021/10/28 06:01:33;;;;;;;22.53;15.20;;;;;;;4.19;100.00;98640.63;4926445;28;20321;-68
2021/10/28 06:04:06;;;;;;;23.07;15.83;;;;;;;4.23;100.00;98633.34;4940121;28;20532;-71
2021/10/28 06:06:34;;;;;;;18.83;14.87;;;;;;;4.25;100.00;98636.69;4935292;28;20738;-68
2021/10/28 06:09:04;;;;;;;24.90;16.73;;;;;;;4.26;100.00;98640.19;4940495;28;20215;-71
2021/10/28 06:11:32;;;;;;;25.33;16.43;;;;;;;4.17;100.00;98644.28;4903123;28;20420;-69
2021/10/28 06:14:00;;;;;;;27.27;15.67;;;;;;;4.28;100.00;98640.91;4934009;28;20210;-71
2021/10/28 06:16:28;;;;;;;21.00;15.37;;;;;;;4.18;100.00;98638.94;4925003;28;20233;-70
2021/10/28 06:18:57;;;;;;;21.93;14.60;;;;;;;4.28;100.00;98644.34;4942816;28;20266;-71
2021/10/28 06:21:26;;;;;;;22.70;15.80;;;;;;;4.14;100.00;98636.63;4923947;28;20234;-69
2021/10/28 06:23:54;;;;;;;20.97;16.30;;;;;;;4.14;100.00;98640.06;4932851;28;20585;-71
2021/10/28 06:26:25;;;;;;;23.50;15.93;;;;;;;4.18;100.00;98640.72;4939961;28;20206;-70
2021/10/28 06:28:54;;;;;;;21.40;15.70;;;;;;;4.17;100.00;98639.88;4904558;28;20249;-70
2021/10/28 06:31:22;;;;;;;24.90;16.90;;;;;;;4.35;100.00;98637.72;4935398;28;20326;-69
2021/10/28 06:33:54;;;;;;;20.23;15.43;;;;;;;4.30;100.00;98631.97;4929412;28;20233;-71
2021/10/28 06:36:25;;;;;;;22.80;17.17;;;;;;;4.32;100.00;98640.56;4939801;28;20238;-69
2021/10/28 06:38:53;;;;;;;27.50;16.60;;;;;;;4.41;100.00;98640.88;4938486;28;20746;-70
2021/10/28 06:41:22;;;;;;;18.37;15.20;;;;;;;4.31;100.00;98638.88;4939032;28;20234;-69
2021/10/28 06:43:51;;;;;;;22.17;15.83;;;;;;;4.38;100.00;98638.47;4909005;28;20219;-71
2021/10/28 06:46:19;;;;;;;21.80;15.30;;;;;;;4.40;100.00;98633.97;4929112;28;20222;-70
2021/10/28 06:48:47;;;;;;;20.90;15.73;;;;;;;4.39;100.00;98635.72;4926383;28;20218;-72
2021/10/28 06:51:15;;;;;;;21.77;15.10;;;;;;;4.48;100.00;98629.00;4939046;28;20226;-69
2021/10/28 06:53:54;;;;;;;19.97;15.63;;;;;;;4.47;100.00;98628.13;4938096;28;20437;-70
2021/10/28 06:56:41;;;;;;;22.77;15.30;;;;;;;4.58;100.00;98631.81;4940034;28;20210;-69
2021/10/28 07:02:29;;;;;;;17.40;14.37;;;;;;;4.49;100.00;98620.16;4920026;28;20718;-69
2021/10/28 07:04:58;;;;;;;16.23;13.43;;;;;;;4.45;100.00;98623.97;4925969;28;20567;-72
2021/10/28 07:07:29;;;;;;;18.07;14.17;;;;;;;4.36;100.00;98628.06;4932439;28;20283;-69
2021/10/28 07:10:06;;;;;;;15.47;11.97;;;;;;;4.38;100.00;98630.59;4934897;28;20230;-70
2021/10/28 07:12:44;;;;;;;19.77;14.00;;;;;;;4.29;100.00;98621.59;4934088;28;20455;-72
2021/10/28 07:15:21;;;;;;;17.80;14.57;;;;;;;4.40;100.00;98628.72;4908259;28;20724;-69
2021/10/28 07:34:59;;;;;;;14.97;12.80;;;;;;;4.81;100.00;98624.88;4911875;28;20759;-69
2021/10/28 08:13:54;;;;;;;14.63;12.53;;;;;;;5.47;100.00;98605.97;4932124;28;20463;-72
2021/10/28 08:19:20;;;;;;;11.57;10.43;;;;;;;5.61;100.00;98598.88;4891618;28;20227;-70
2021/10/28 08:21:51;;;;;;;13.20;11.87;;;;;;;5.57;100.00;98600.06;4921283;28;20261;-70
2021/10/28 08:28:39;;;;;;;13.77;12.23;;;;;;;5.47;100.00;98599.91;4937457;28;20215;-70
2021/10/28 08:30:08;;;;;;;14.37;11.57;;;;;;;5.60;100.00;98595.38;4939459;28;20202;-69
2021/10/28 08:32:37;;;;;;;12.93;11.13;;;;;;;5.60;100.00;98594.56;4924339;28;20485;-68
2021/10/28 08:35:06;;;;;;;12.77;11.50;;;;;;;5.70;100.00;98597.31;4894831;28;20952;-70
2021/10/28 08:37:43;;;;;;;13.00;11.70;;;;;;;5.85;100.00;98595.28;4922206;28;20235;-70
2021/10/28 08:40:14;;;;;;;14.30;12.80;;;;;;;5.60;100.00;98591.94;4922611;28;20210;-69
2021/10/28 08:42:43;;;;;;;15.53;12.20;;;;;;;5.61;100.00;98586.53;4929840;28;20238;-71
2021/10/28 08:45:14;;;;;;;14.17;12.63;;;;;;;5.72;100.00;98587.53;4935565;28;20593;-69
2021/10/28 08:47:47;;;;;;;16.00;12.93;;;;;;;5.67;100.00;98587.00;4922271;28;20214;-68
2021/10/28 08:50:21;;;;;;;14.97;12.37;;;;;;;6.04;100.00;98585.03;4896804;28;20235;-69
2021/10/28 08:53:05;;;;;;;14.93;12.73;;;;;;;6.03;100.00;98580.72;4938166;28;20214;-72
2021/10/28 08:55:34;;;;;;;16.07;13.53;;;;;;;6.13;100.00;98585.25;4933983;28;20207;-71
2021/10/28 09:26:45;;;;;;;17.57;13.00;;;;;;;7.23;100.00;98548.25;4898507;28;20218;-71
2021/10/28 09:29:19;;;;;;;17.73;13.53;;;;;;;7.09;100.00;98540.69;4926650;28;20322;-70
2021/10/28 09:32:00;;;;;;;17.37;13.70;;;;;;;7.19;100.00;98543.34;4938041;28;20608;-71
2021/10/28 09:34:40;;;;;;;17.20;14.07;;;;;;;7.15;100.00;98537.53;4940685;28;21126;-72
2021/10/28 09:46:11;;;;;;;18.83;13.53;;;;;;;7.21;100.00;98529.09;4924072;28;20207;-71
2021/10/28 09:51:36;;;;;;;20.70;14.67;;;;;;;7.32;100.00;98536.09;4940692;28;20223;-72
2021/10/28 09:54:17;;;;;;;14.87;12.97;;;;;;;7.29;100.00;98522.34;4923424;28;20910;-71
2021/10/28 09:59:34;;;;;;;17.40;13.93;;;;;;;7.11;100.00;98528.22;4935304;28;20322;-69
2021/10/28 10:02:10;;;;;;;15.80;13.33;;;;;;;7.33;100.00;98529.03;4922897;28;20752;-71
2021/10/28 10:04:41;;;;;;;14.93;13.23;;;;;;;7.22;100.00;98529.94;4942126;28;20202;-68
2021/10/28 10:07:09;;;;;;;16.63;13.87;;;;;;;7.25;100.00;98521.78;4935862;28;20329;-70
2021/10/28 10:09:38;;;;;;;15.77;13.27;;;;;;;7.29;100.00;98535.53;4940460;28;20211;-71
2021/10/28 10:12:07;;;;;;;16.33;13.67;;;;;;;7.39;100.00;98528.53;4892585;28;20570;-71
2021/10/28 10:14:38;;;;;;;19.40;15.03;;;;;;;7.44;100.00;98526.31;4941052;28;20214;-70
2021/10/28 10:17:07;;;;;;;15.53;13.20;;;;;;;7.71;100.00;98538.09;4927362;28;20224;-68
2021/10/28 10:19:37;;;;;;;18.00;14.47;;;;;;;7.59;100.00;98528.59;4941378;28;20699;-70
2021/10/28 10:22:29;;;;;;;18.80;14.53;;;;;;;7.64;100.00;98526.41;4939546;28;20550;-68
2021/10/28 10:25:38;;;;;;;16.47;13.60;;;;;;;7.91;100.00;98523.16;4922492;28;20294;-67
2021/10/28 11:27:23;;;;;;;18.17;14.13;;;;;;;8.34;100.00;98478.13;4931368;28;20210;-69
2021/10/28 11:30:31;;;;;;;17.73;15.87;;;;;;;8.52;100.00;98478.28;4905377;28;20579;-70
2021/10/28 12:51:50;;;;;;;21.50;17.93;;;;;;;8.63;100.00;98403.34;5051442;27;20518;-69
2021/10/28 13:37:45;;;;;;;20.97;17.60;;;;;;;8.79;100.00;98369.25;5083121;28;20213;-68
2021/10/28 13:50:20;;;;;;;23.37;17.93;;;;;;;8.65;100.00;98365.25;5090388;28;20198;-70
2021/10/28 14:37:35;;;;;;;18.97;14.03;;;;;;;8.21;100.00;98363.03;5073858;28;20609;-69
2021/10/28 15:30:25;;;;;;;45.20;35.73;;;;;;;7.67;100.00;98317.75;5000016;28;20211;-69
2021/10/28 15:35:42;;;;;;;28.17;21.53;;;;;;;7.67;100.00;98320.38;5039072;28;20419;-70
2021/10/28 15:38:23;;;;;;;23.37;17.20;;;;;;;7.56;100.00;98316.06;5064616;28;20206;-70
2021/10/28 15:41:16;;;;;;;25.23;17.43;;;;;;;7.47;100.00;98319.50;5066433;28;20223;-69
2021/10/28 15:58:25;;;;;;;22.63;17.10;;;;;;;7.71;100.00;98323.59;5062488;28;20286;-69
2021/10/28 16:23:20;;;;;;;19.80;15.30;;;;;;;7.31;100.00;98315.59;5004434;28;20588;-68
2021/10/28 16:25:49;;;;;;;21.83;15.43;;;;;;;7.30;100.00;98307.81;5011709;28;21000;-69
2021/10/28 16:28:18;;;;;;;22.33;15.33;;;;;;;7.27;100.00;98327.41;5014749;28;20240;-69
2021/10/28 16:30:47;;;;;;;22.73;17.67;;;;;;;7.32;100.00;98313.78;4999198;28;20424;-70
2021/10/28 16:33:15;;;;;;;21.83;15.87;;;;;;;7.19;100.00;98324.56;5014397;28;20258;-69
2021/10/28 16:35:44;;;;;;;22.87;16.17;;;;;;;7.07;100.00;98318.59;4973290;28;20220;-69
2021/10/28 16:38:12;;;;;;;19.90;15.60;;;;;;;7.18;100.00;98315.00;5001467;28;20216;-69
2021/10/28 16:40:41;;;;;;;22.10;15.77;;;;;;;7.22;100.00;98316.44;5010562;28;20532;-69
2021/10/28 16:43:10;;;;;;;20.57;15.83;;;;;;;7.22;100.00;98321.69;5010504;28;20208;-69
2021/10/28 16:45:38;;;;;;;23.80;16.53;;;;;;;7.14;100.00;98314.44;5000686;28;20244;-67
2021/10/28 16:48:07;;;;;;;24.17;17.27;;;;;;;7.06;100.00;98324.84;5002585;28;20224;-70
2021/10/28 16:50:36;;;;;;;21.80;16.40;;;;;;;7.15;100.00;98318.75;4966484;28;20216;-67
2021/10/28 16:53:04;;;;;;;22.73;16.37;;;;;;;7.13;100.00;98317.22;5001661;28;20212;-66
2021/10/28 16:55:52;;;;;;;19.93;15.67;;;;;;;7.28;100.00;98325.56;5013145;28;20196;-69
2021/10/28 16:58:21;;;;;;;23.20;17.03;;;;;;;7.08;100.00;98320.25;5010260;28;20204;-67
2021/10/28 17:00:50;;;;;;;21.47;15.57;;;;;;;7.05;100.00;98315.25;4998429;28;20239;-67
2021/10/28 17:03:19;;;;;;;21.03;16.13;;;;;;;7.09;100.00;98314.03;5002178;28;20303;-67
2021/10/28 17:05:48;;;;;;;20.23;15.77;;;;;;;7.04;100.00;98321.50;4966395;28;20226;-68
2021/10/28 17:08:16;;;;;;;22.47;16.57;;;;;;;7.02;100.00;98311.09;4998808;28;20232;-68
2021/10/28 17:10:45;;;;;;;22.83;16.60;;;;;;;7.07;100.00;98319.41;5009823;28;20671;-67
2021/10/28 17:13:13;;;;;;;21.37;16.37;;;;;;;7.10;100.00;98313.06;5013210;28;20208;-68
2021/10/28 17:15:42;;;;;;;21.77;16.53;;;;;;;7.07;100.00;98314.16;4997529;28;20208;-69
2021/10/28 17:18:10;;;;;;;22.60;16.23;;;;;;;7.13;100.00;98312.78;5013243;28;20676;-66
2021/10/28 17:20:38;;;;;;;20.20;16.67;;;;;;;7.05;100.00;98302.09;4992936;28;20220;-66
2021/10/28 17:23:11;;;;;;;22.37;17.07;;;;;;;7.01;100.00;98319.09;4978845;28;20219;-70
2021/10/28 17:25:40;;;;;;;23.93;17.27;;;;;;;7.00;100.00;98315.66;4982101;28;20258;-68
2021/10/28 17:28:09;;;;;;;19.97;15.37;;;;;;;7.07;100.00;98311.50;5009852;28;20222;-67
2021/10/28 17:30:37;;;;;;;25.70;16.63;;;;;;;7.02;100.00;98311.09;5008747;28;20291;-69
2021/10/28 17:33:07;;;;;;;22.53;16.97;;;;;;;6.89;100.00;98307.84;5002393;28;20216;-70
2021/10/28 17:35:35;;;;;;;22.27;16.73;;;;;;;6.86;100.00;98314.22;4997124;28;20208;-69
2021/10/28 17:38:03;;;;;;;21.63;17.70;;;;;;;6.86;100.00;98311.56;4983476;28;20593;-70
2021/10/28 17:40:31;;;;;;;21.50;17.87;;;;;;;6.88;100.00;98317.53;4969734;28;21458;-69
2021/10/28 17:42:59;;;;;;;20.73;16.73;;;;;;;6.95;100.00;98310.78;5015113;28;20204;-70
2021/10/28 17:45:30;;;;;;;22.63;17.73;;;;;;;6.81;100.00;98311.97;5008632;28;20444;-69
2021/10/28 17:47:58;;;;;;;23.50;18.03;;;;;;;6.83;100.00;98319.75;5003721;28;20766;-69
2021/10/28 17:50:27;;;;;;;25.30;17.90;;;;;;;6.84;100.00;98313.50;5014068;28;20232;-69
2021/10/28 17:52:56;;;;;;;22.47;17.03;;;;;;;6.79;100.00;98316.53;5008067;28;20219;-68
2021/10/28 17:55:24;;;;;;;23.37;18.20;;;;;;;6.83;100.00;98317.09;4959955;28;20707;-68
2021/10/28 17:57:52;;;;;;;19.70;16.33;;;;;;;6.84;100.00;98315.31;5014845;28;20212;-70
2021/10/28 18:00:22;;;;;;;24.37;17.77;;;;;;;6.86;100.00;98314.22;4982741;28;20215;-68
2021/10/28 18:02:51;;;;;;;26.00;16.77;;;;;;;6.83;100.00;98309.22;5002679;28;20220;-66
2021/10/28 18:05:40;;;;;;;22.23;17.00;;;;;;;7.24;100.00;98314.50;4989292;28;20595;-72
2021/10/28 18:08:08;;;;;;;25.27;17.87;;;;;;;7.46;100.00;98312.56;5000938;28;20215;-68
2021/10/28 18:10:37;;;;;;;25.23;17.93;;;;;;;7.37;100.00;98311.56;4964871;28;20776;-69
2021/10/28 18:13:05;;;;;;;23.60;17.10;;;;;;;7.42;100.00;98313.81;5011842;28;20204;-69
2021/10/28 18:15:33;;;;;;;20.57;16.07;;;;;;;7.42;100.00;98312.03;5001459;28;20740;-69
2021/10/28 18:18:05;;;;;;;23.53;18.90;;;;;;;7.49;100.00;98307.88;5014237;28;20727;-68
2021/10/28 18:20:47;;;;;;;23.07;17.37;;;;;;;7.38;100.00;98302.69;4995760;28;20311;-68
2021/10/28 18:23:30;;;;;;;24.50;17.87;;;;;;;7.18;100.00;98305.31;5012482;28;20207;-68
2021/10/28 18:25:58;;;;;;;22.77;17.87;;;;;;;6.95;100.00;98302.88;4973469;28;20710;-69
2021/10/28 18:28:26;;;;;;;25.70;19.07;;;;;;;6.86;100.00;98297.59;5009675;28;20814;-69
2021/10/28 18:30:54;;;;;;;30.57;18.80;;;;;;;6.80;100.00;98298.94;5015022;28;20677;-71
2021/10/28 18:33:22;;;;;;;32.03;20.07;;;;;;;6.71;100.00;98292.66;5010930;28;20294;-70
2021/10/28 18:35:52;;;;;;;28.20;19.37;;;;;;;6.83;100.00;98305.75;5004203;28;20216;-70
2021/10/28 18:38:21;;;;;;;29.67;19.13;;;;;;;6.85;100.00;98296.72;5011111;28;20220;-68
2021/10/28 18:40:50;;;;;;;21.90;18.37;;;;;;;6.79;100.00;98299.91;5014778;28;20588;-68
2021/10/28 18:43:17;;;;;;;23.23;18.27;;;;;;;6.92;100.00;98295.22;4969286;28;20555;-67
2021/10/28 18:45:46;;;;;;;25.47;19.83;;;;;;;6.68;100.00;98300.00;5013403;28;20273;-67
2021/10/28 18:48:14;;;;;;;25.27;18.80;;;;;;;6.64;100.00;98300.28;5010963;28;20849;-70
2021/10/28 18:50:43;;;;;;;23.93;18.10;;;;;;;6.68;100.00;98300.00;5002504;28;20228;-69
2021/10/28 18:53:12;;;;;;;26.13;18.87;;;;;;;6.61;100.00;98289.97;5012909;28;20204;-70
2021/10/28 18:55:40;;;;;;;24.13;19.07;;;;;;;6.50;100.00;98293.53;5012749;28;20213;-70
2021/10/28 18:58:08;;;;;;;25.47;18.80;;;;;;;6.55;100.00;98292.31;4972341;28;20579;-70
2021/10/28 19:00:37;;;;;;;24.77;19.00;;;;;;;6.55;100.00;98306.28;5014972;28;20205;-69
2021/10/28 19:03:05;;;;;;;24.67;20.00;;;;;;;6.57;100.00;98306.19;5011052;28;20274;-70
2021/10/28 19:05:34;;;;;;;23.27;18.80;;;;;;;6.37;100.00;98300.78;5010947;28;20200;-68
2021/10/28 19:08:02;;;;;;;29.87;19.00;;;;;;;6.30;100.00;98299.66;5002128;28;20790;-69
2021/10/28 19:10:31;;;;;;;25.67;18.77;;;;;;;6.34;100.00;98301.91;5010710;28;20747;-69
2021/10/28 19:12:59;;;;;;;29.07;20.70;;;;;;;6.58;100.00;98300.75;4972560;28;20208;-70
2021/10/28 19:15:27;;;;;;;25.80;19.33;;;;;;;6.35;100.00;98294.81;5011671;28;20517;-69
2021/10/28 19:17:56;;;;;;;31.60;21.13;;;;;;;6.35;100.00;98295.66;5013890;28;20703;-69
2021/10/28 19:20:26;;;;;;;24.43;19.90;;;;;;;6.35;100.00;98298.31;4992968;28;20209;-70
2021/10/28 19:22:55;;;;;;;28.00;19.83;;;;;;;6.27;100.00;98295.50;4984124;28;20451;-70
2021/10/28 19:25:23;;;;;;;24.27;19.70;;;;;;;6.32;100.00;98298.56;5010079;28;20204;-68
2021/10/28 19:27:54;;;;;;;32.70;21.80;;;;;;;6.36;100.00;98294.72;4960185;28;20216;-71
2021/10/28 19:30:30;;;;;;;27.67;20.37;;;;;;;6.35;100.00;98297.47;5014521;28;20541;-69
2021/10/28 19:33:01;;;;;;;33.27;23.00;;;;;;;6.37;100.00;98303.44;5010150;28;20412;-70
2021/10/28 19:35:31;;;;;;;34.80;24.40;;;;;;;6.30;100.00;98303.13;5003926;28;20216;-69
2021/10/28 19:38:06;;;;;;;32.77;22.67;;;;;;;6.28;100.00;98304.22;4996504;28;20655;-70
2021/10/28 19:46:11;;;;;;;35.20;23.27;;;;;;;6.34;100.00;98286.09;5009417;28;20336;-69